EDT,Max TemperatureF,Mean TemperatureF,Min TemperatureF,Max Dew PointF,MeanDew PointF,Min DewpointF,Max Humidity, Mean Humidity, Min Humidity, Max Sea Level PressureIn, Mean Sea Level PressureIn, Min Sea Level PressureIn, Max VisibilityMiles, Mean VisibilityMiles, Min VisibilityMiles, Max Wind SpeedMPH, Mean Wind SpeedMPH, Max Gust SpeedMPH,PrecipitationIn, CloudCover, Events, WindDirDegrees
2013-4-1,60,46,33,43,33,10,100,76,32,29.97,29.76,29.71,10,4,0,24,7,37,0.00,2,Fog-Rain,285
2013-4-2,44,36,28,16,13,11,56,40,26,30.15,30.06,29.99,10,10,10,22,11,28,0.00,2,,292
2013-4-3,46,36,26,16,12,9,58,39,25,30.35,30.25,30.17,10,10,10,24,11,33,0.00,1,,288
2013-4-4,51,37,24,21,15,10,61,41,26,30.42,30.28,30.08,10,10,10,10,6,18,0.00,0,,224
2013-4-5,61,48,34,33,23,12,86,43,20,30.05,29.92,29.79,10,10,6,17,7,23,0.00,2,,322
2013-4-6,51,42,33,21,17,13,54,38,25,30.33,30.25,30.07,10,10,10,12,6,,0.00,0,,13
2013-4-7,62,50,37,41,34,24,70,54,41,30.26,30.11,29.98,10,10,10,16,8,24,0.00,2,,168
2013-4-8,77,60,44,49,43,38,85,54,33,30.07,30.00,29.93,10,9,6,16,4,22,0.00,2,,158
2013-4-9,81,68,55,51,49,46,72,48,29,30.03,29.97,29.88,10,10,6,18,7,25,0.00,1,,247
2013-4-10,86,70,55,58,54,49,90,60,34,29.93,29.86,29.74,10,9,3,38,6,50,0.10,3,Rain-Thunderstorm,267
2013-4-11,73,62,51,61,55,44,100,81,66,29.90,29.86,29.81,10,7,0,22,6,25,0.00,2,Fog,88
2013-4-12,50,47,44,45,43,42,93,90,77,29.88,29.73,29.66,10,5,2,22,14,30,0.67,8,Rain,70
2013-4-13,60,49,39,43,37,32,100,70,41,29.98,29.88,29.80,10,7,0,17,4,20,0.00,3,Fog,309
2013-4-14,61,50,39,36,32,27,77,54,33,30.15,30.08,29.98,10,9,7,15,4,21,0.00,1,,306
2013-4-15,62,54,46,45,39,33,77,62,52,30.32,30.25,30.15,10,10,10,14,7,18,0.00,6,Rain,122
2013-4-16,70,58,48,54,49,44,87,73,57,30.32,30.24,30.11,10,10,9,17,8,23,0.00,6,,160
2013-4-17,69,61,51,55,49,39,100,75,33,30.25,30.19,30.10,10,6,0,9,4,,0.02,5,Fog-Rain,19
2013-4-18,62,57,52,58,50,37,94,79,51,30.26,30.18,30.03,10,7,2,14,9,,0.04,7,Rain,118
2013-4-19,73,63,51,63,57,42,94,84,66,30.01,29.78,29.58,10,6,1,32,12,44,1.09,6,Rain,206
2013-4-20,55,48,39,43,31,24,86,54,35,30.35,30.03,29.78,10,10,5,22,11,31,0.09,4,Rain,298
2013-4-21,52,42,32,32,24,19,73,49,33,30.61,30.53,30.37,10,10,10,15,7,18,0.00,0,,22
2013-4-22,55,44,34,33,32,29,89,64,43,30.61,30.53,30.45,10,10,6,18,6,24,0.00,1,,90
2013-4-23,57,50,42,41,37,34,89,70,55,30.43,30.28,30.14,10,10,7,12,6,,0.00,5,,76
2013-4-24,70,52,35,56,44,34,100,82,56,30.12,30.00,29.78,10,5,0,21,3,33,0.09,4,Fog-Rain,176
2013-4-25,59,49,39,38,31,28,65,50,32,30.30,30.20,30.03,10,10,10,24,13,36,0.00,1,,298
2013-4-26,61,48,37,36,31,27,79,51,28,30.45,30.39,30.30,10,10,8,12,3,17,0.00,0,,309
2013-4-27,66,51,36,37,33,30,79,50,28,30.45,30.37,30.28,10,10,8,7,2,,0.00,0,,129
2013-4-28,66,54,41,45,39,34,86,58,32,30.29,30.23,30.17,10,10,8,16,6,23,0.03,3,Rain,139
2013-4-29,57,54,50,55,52,39,94,91,63,30.17,30.12,30.09,10,4,1,13,7,18,0.36,8,Rain,125
2013-4-30,66,58,48,52,49,36,94,77,48,30.30,30.21,30.14,10,7,2,13,8,20,0.01,7,Rain,90